sensor_id;sensor_type;location;lat;lon;timestamp;pressure;altitude;pressure_sealevel;temperature;humidity
8515;BME280;4295;51.024;7.000;2022-11-18T00:01:12;55243.03;;;-15.49;100.00
8515;BME280;4295;51.024;7.000;2022-11-18T00:03:39;55248.63;;;-15.44;100.00
8515;BME280;4295;51.024;7.000;2022-11-18T00:06:06;55878.16;;;-15.48;100.00
8515;BME280;4295;51.024;7.000;2022-11-18T00:08:31;56511.31;;;-15.48;100.00
8515;BME280;4295;51.024;7.000;2022-11-18T00:10:57;57450.97;;;-15.59;100.00
8515;BME280;4295;51.024;7.000;2022-11-18T00:13:22;57141.94;;;-15.51;100.00
8515;BME280;4295;51.024;7.000;2022-11-18T00:16:10;57771.56;;;-15.55;100.00
8515;BME280;4295;51.024;7.000;2022-11-18T00:18:37;57772.63;;;-15.54;100.00
8515;BME280;4295;51.024;7.000;2022-11-18T00:21:08;57776.91;;;-15.50;100.00
8515;BME280;4295;51.024;7.000;2022-11-18T00:23:34;58092.28;;;-15.52;100.00
8515;BME280;4295;51.024;7.000;2022-11-18T00:26:04;58094.94;;;-15.49;100.00
8515;BME280;4295;51.024;7.000;2022-11-18T00:28:30;58726.31;;;-15.52;100.00
8515;BME280;4295;51.024;7.000;2022-11-18T00:31:01;59350.16;;;-15.61;100.00
8515;BME280;4295;51.024;7.000;2022-11-18T00:33:26;59667.22;;;-15.61;100.00
8515;BME280;4295;51.024;7.000;2022-11-18T00:35:54;59975.56;;;-15.69;100.00
8515;BME280;4295;51.024;7.000;2022-11-18T00:38:19;60286.56;;;-15.75;100.00
8515;BME280;4295;51.024;7.000;2022-11-18T00:40:45;59970.63;;;-15.74;100.00
8515;BME280;4295;51.024;7.000;2022-11-18T00:43:10;60280.50;;;-15.80;100.00
8515;BME280;4295;51.024;7.000;2022-11-18T00:45:35;59967.88;;;-15.76;100.00
8515;BME280;4295;51.024;7.000;2022-11-18T00:48:00;59651.38;;;-15.76;100.00
8515;BME280;4295;51.024;7.000;2022-11-18T00:50:27;59338.19;;;-15.72;100.00
8515;BME280;4295;51.024;7.000;2022-11-18T00:52:52;59021.75;;;-15.72;100.00
8515;BME280;4295;51.024;7.000;2022-11-18T00:55:17;58706.41;;;-15.70;100.00
8515;BME280;4295;51.024;7.000;2022-11-18T00:57:43;58702.63;;;-15.74;100.00
8515;BME280;4295;51.024;7.000;2022-11-18T01:00:08;58386.25;;;-15.73;100.00
8515;BME280;4295;51.024;7.000;2022-11-18T01:02:34;58069.34;;;-15.73;100.00
8515;BME280;4295;51.024;7.000;2022-11-18T01:05:00;57753.00;;;-15.73;100.00
8515;BME280;4295;51.024;7.000;2022-11-18T01:07:25;57753.00;;;-15.73;100.00
8515;BME280;4295;51.024;7.000;2022-11-18T01:09:50;57753.53;;;-15.72;100.00
8515;BME280;4295;51.024;7.000;2022-11-18T01:12:16;57437.75;;;-15.71;100.00
8515;BME280;4295;51.024;7.000;2022-11-18T01:15:00;57438.28;;;-15.71;100.00
8515;BME280;4295;51.024;7.000;2022-11-18T01:17:28;57122.50;;;-15.70;100.00
8515;BME280;4295;51.024;7.000;2022-11-18T01:19:54;57126.19;;;-15.66;100.00
8515;BME280;4295;51.024;7.000;2022-11-18T01:22:19;57127.25;;;-15.65;100.00
8515;BME280;4295;51.024;7.000;2022-11-18T01:24:44;57129.34;;;-15.63;100.00
8515;BME280;4295;51.024;7.000;2022-11-18T01:27:10;57129.34;;;-15.63;100.00
8515;BME280;4295;51.024;7.000;2022-11-18T01:29:35;57123.03;;;-15.69;100.00
8515;BME280;4295;51.024;7.000;2022-11-18T01:32:01;56493.63;;;-15.65;100.00
8515;BME280;4295;51.024;7.000;2022-11-18T01:34:27;56181.00;;;-15.61;100.00
8515;BME280;4295;51.024;7.000;2022-11-18T01:36:53;56181.50;;;-15.61;100.00
8515;BME280;4295;51.024;7.000;2022-11-18T01:39:18;56181.50;;;-15.61;100.00
8515;BME280;4295;51.024;7.000;2022-11-18T01:41:44;56181.50;;;-15.61;100.00
8515;BME280;4295;51.024;7.000;2022-11-18T01:47:16;56491.56;;;-15.67;100.00
8515;BME280;4295;51.024;7.000;2022-11-18T01:49:41;56176.34;;;-15.66;100.00
8515;BME280;4295;51.024;7.000;2022-11-18T01:52:06;55857.56;;;-15.68;100.00
8515;BME280;4295;51.024;7.000;2022-11-18T01:54:35;56166.50;;;-15.75;100.00
8515;BME280;4295;51.024;7.000;2022-11-18T01:57:06;55222.16;;;-15.70;100.00
8515;BME280;4295;51.024;7.000;2022-11-18T01:59:35;54905.53;;;-15.70;100.00
8515;BME280;4295;51.024;7.000;2022-11-18T02:02:08;54276.41;;;-15.66;100.00
8515;BME280;4295;51.024;7.000;2022-11-18T02:04:35;53961.84;;;-15.64;100.00
8515;BME280;4295;51.024;7.000;2022-11-18T02:07:00;53647.31;;;-15.62;100.00
8515;BME280;4295;51.024;7.000;2022-11-18T02:09:25;53330.78;;;-15.62;100.00
8515;BME280;4295;51.024;7.000;2022-11-18T02:11:51;53328.81;;;-15.64;100.00
8515;BME280;4295;51.024;7.000;2022-11-18T02:14:26;53011.38;;;-15.65;100.00
8515;BME280;4295;51.024;7.000;2022-11-18T02:30:06;51433.28;;;-15.61;100.00
8515;BME280;4295;51.024;7.000;2022-11-18T02:35:51;51432.31;;;-15.62;100.00
8515;BME280;4295;51.024;7.000;2022-11-18T02:38:44;51425.66;;;-15.69;100.00
8515;BME280;4295;51.024;7.000;2022-11-18T02:41:15;51425.16;;;-15.69;100.00
8515;BME280;4295;51.024;7.000;2022-11-18T02:43:53;51108.41;;;-15.70;100.00
8515;BME280;4295;51.024;7.000;2022-11-18T02:46:26;50479.75;;;-15.66;100.00
8515;BME280;4295;51.024;7.000;2022-11-18T02:48:54;50477.41;;;-15.68;100.00
8515;BME280;4295;51.024;7.000;2022-11-18T02:51:24;50159.81;;;-15.70;100.00
8515;BME280;4295;51.024;7.000;2022-11-18T02:53:52;50471.75;;;-15.74;100.00
8515;BME280;4295;51.024;7.000;2022-11-18T02:56:20;49841.81;;;-15.72;100.00
8515;BME280;4295;51.024;7.000;2022-11-18T02:58:46;49526.16;;;-15.71;100.00
8515;BME280;4295;51.024;7.000;2022-11-18T03:01:18;49525.25;;;-15.72;100.00
8515;BME280;4295;51.024;7.000;2022-11-18T03:03:44;48897.69;;;-15.67;100.00
8515;BME280;4295;51.024;7.000;2022-11-18T03:06:42;48582.53;;;-15.66;100.00
8515;BME280;4295;51.024;7.000;2022-11-18T03:09:23;48583.91;;;-15.65;100.00
8515;BME280;4295;51.024;7.000;2022-11-18T03:18:31;48899.50;;;-15.65;100.00
8515;BME280;4295;51.024;7.000;2022-11-18T03:20:35;49213.75;;;-15.67;100.00
8515;BME280;4295;51.024;7.000;2022-11-18T03:23:13;49525.25;;;-15.72;100.00
8515;BME280;4295;51.024;7.000;2022-11-18T03:25:43;49839.97;;;-15.74;100.00
8515;BME280;4295;51.024;7.000;2022-11-18T03:30:39;50149.56;;;-15.81;100.00
8515;BME280;4295;51.024;7.000;2022-11-18T03:33:11;49834.88;;;-15.79;100.00
8515;BME280;4295;51.024;7.000;2022-11-18T03:35:40;49834.41;;;-15.80;100.00
8515;BME280;4295;51.024;7.000;2022-11-18T03:38:14;49519.72;;;-15.78;100.00
8515;BME280;4295;51.024;7.000;2022-11-18T03:40:45;48890.84;;;-15.75;100.00
8515;BME280;4295;51.024;7.000;2022-11-18T03:43:19;48577.09;;;-15.72;100.00
8515;BME280;4295;51.024;7.000;2022-11-18T03:45:48;48262.94;;;-15.70;100.00
8515;BME280;4295;51.024;7.000;2022-11-18T03:48:17;48259.78;;;-15.74;100.00
8515;BME280;4295;51.024;7.000;2022-11-18T03:51:07;47632.34;;;-15.69;100.00
8515;BME280;4295;51.024;7.000;2022-11-18T03:53:37;47631.91;;;-15.69;100.00
8515;BME280;4295;51.024;7.000;2022-11-18T03:56:15;47944.72;;;-15.73;100.00
8515;BME280;4295;51.024;7.000;2022-11-18T03:58:59;47943.38;;;-15.74;100.00
8515;BME280;4295;51.024;7.000;2022-11-18T04:01:36;48257.97;;;-15.76;100.00
8515;BME280;4295;51.024;7.000;2022-11-18T04:04:04;47941.16;;;-15.77;100.00
8515;BME280;4295;51.024;7.000;2022-11-18T04:08:58;48251.69;;;-15.83;100.00
8515;BME280;4295;51.024;7.000;2022-11-18T04:11:28;48248.97;;;-15.86;100.00
8515;BME280;4295;51.024;7.000;2022-11-18T04:14:15;48249.44;;;-15.85;100.00
8515;BME280;4295;51.024;7.000;2022-11-18T04:16:42;48247.63;;;-15.87;100.00
8515;BME280;4295;51.024;7.000;2022-11-18T04:19:08;48244.91;;;-15.90;100.00
8515;BME280;4295;51.024;7.000;2022-11-18T04:21:33;47928.63;;;-15.91;100.00
8515;BME280;4295;51.024;7.000;2022-11-18T04:23:59;47927.28;;;-15.92;100.00
8515;BME280;4295;51.024;7.000;2022-11-18T04:26:24;48236.84;;;-15.99;100.00
8515;BME280;4295;51.024;7.000;2022-11-18T04:28:50;47918.78;;;-16.02;100.00
8515;BME280;4295;51.024;7.000;2022-11-18T04:31:15;47605.25;;;-15.99;100.00
8515;BME280;4295;51.024;7.000;2022-11-18T04:33:40;47600.78;;;-16.05;100.00
8515;BME280;4295;51.024;7.000;2022-11-18T04:36:06;47595.91;;;-16.10;100.00
8515;BME280;4295;51.024;7.000;2022-11-18T04:38:31;47281.09;;;-16.09;100.00
8515;BME280;4295;51.024;7.000;2022-11-18T04:40:57;46652.84;;;-16.06;100.00
8515;BME280;4295;51.024;7.000;2022-11-18T04:43:22;46336.75;;;-16.06;100.00
8515;BME280;4295;51.024;7.000;2022-11-18T04:45:47;46645.84;;;-16.14;100.00
8515;BME280;4295;51.024;7.000;2022-11-18T04:48:13;46332.41;;;-16.11;100.00
8515;BME280;4295;51.024;7.000;2022-11-18T04:50:38;45706.44;;;-16.05;100.00
8515;BME280;4295;51.024;7.000;2022-11-18T04:53:04;45393.03;;;-16.03;100.00
8515;BME280;4295;51.024;7.000;2022-11-18T04:55:29;45080.47;;;-15.99;100.00
8515;BME280;4295;51.024;7.000;2022-11-18T04:57:54;44767.03;;;-15.96;100.00
8515;BME280;4295;51.024;7.000;2022-11-18T05:00:20;44766.22;;;-15.97;100.00
8515;BME280;4295;51.024;7.000;2022-11-18T05:02:47;45390.50;;;-16.06;100.00
8515;BME280;4295;51.024;7.000;2022-11-18T05:05:12;45077.94;;;-16.02;100.00
8515;BME280;4295;51.024;7.000;2022-11-18T05:07:38;44765.78;;;-15.98;100.00
8515;BME280;4295;51.024;7.000;2022-11-18T05:10:04;44449.88;;;-15.98;100.00
8515;BME280;4295;51.024;7.000;2022-11-18T05:12:29;43827.25;;;-15.88;100.00
8515;BME280;4295;51.024;7.000;2022-11-18T05:15:13;43515.47;;;-15.84;100.00
8515;BME280;4295;51.024;7.000;2022-11-18T05:17:38;43517.94;;;-15.81;100.00
8515;BME280;4295;51.024;7.000;2022-11-18T05:20:04;43832.19;;;-15.82;100.00
8515;BME280;4295;51.024;7.000;2022-11-18T05:22:30;43834.66;;;-15.79;100.00
8515;BME280;4295;51.024;7.000;2022-11-18T05:24:55;44149.38;;;-15.80;100.00
8515;BME280;4295;51.024;7.000;2022-11-18T05:27:20;44466.19;;;-15.79;100.00
8515;BME280;4295;51.024;7.000;2022-11-18T05:29:45;44778.41;;;-15.83;100.00
8515;BME280;4295;51.024;7.000;2022-11-18T05:32:11;44777.56;;;-15.84;100.00
8515;BME280;4295;51.024;7.000;2022-11-18T05:34:37;44780.50;;;-15.80;100.00
8515;BME280;4295;51.024;7.000;2022-11-18T05:37:03;45093.16;;;-15.84;100.00
8515;BME280;4295;51.024;7.000;2022-11-18T05:39:28;44780.09;;;-15.81;100.00
8515;BME280;4295;51.024;7.000;2022-11-18T05:41:53;44780.50;;;-15.80;100.00
8515;BME280;4295;51.024;7.000;2022-11-18T05:44:37;44783.03;;;-15.77;100.00
8515;BME280;4295;51.024;7.000;2022-11-18T05:47:03;44468.69;;;-15.76;100.00
8515;BME280;4295;51.024;7.000;2022-11-18T05:49:28;44471.19;;;-15.73;100.00
8515;BME280;4295;51.024;7.000;2022-11-18T05:51:53;45097.41;;;-15.79;100.00
8515;BME280;4295;51.024;7.000;2022-11-18T05:54:19;45410.50;;;-15.82;100.00
8515;BME280;4295;51.024;7.000;2022-11-18T05:56:45;45408.78;;;-15.84;100.00
8515;BME280;4295;51.024;7.000;2022-11-18T05:59:11;45405.81;;;-15.87;100.00
8515;BME280;4295;51.024;7.000;2022-11-18T06:01:57;45093.59;;;-15.83;100.00
8515;BME280;4295;51.024;7.000;2022-11-18T06:06:57;44778.84;;;-15.82;100.00
8515;BME280;4295;51.024;7.000;2022-11-18T06:09:28;44778.84;;;-15.82;100.00
8515;BME280;4295;51.024;7.000;2022-11-18T06:11:56;44778.00;;;-15.83;100.00
8515;BME280;4295;51.024;7.000;2022-11-18T06:14:30;45092.75;;;-15.84;100.00
8515;BME280;4295;51.024;7.000;2022-11-18T06:17:02;45714.59;;;-15.95;100.00
8515;BME280;4295;51.024;7.000;2022-11-18T06:19:28;46028.50;;;-15.97;100.00
8515;BME280;4295;51.024;7.000;2022-11-18T06:21:55;46028.06;;;-15.98;100.00
8515;BME280;4295;51.024;7.000;2022-11-18T06:24:20;46026.78;;;-15.99;100.00
8515;BME280;4295;51.024;7.000;2022-11-18T06:26:46;46028.06;;;-15.98;100.00
8515;BME280;4295;51.024;7.000;2022-11-18T06:29:14;46027.19;;;-15.99;100.00
8515;BME280;4295;51.024;7.000;2022-11-18T06:31:42;46341.09;;;-16.01;100.00
8515;BME280;4295;51.024;7.000;2022-11-18T06:34:07;46340.66;;;-16.02;100.00
8515;BME280;4295;51.024;7.000;2022-11-18T06:36:32;46341.09;;;-16.01;100.00
8515;BME280;4295;51.024;7.000;2022-11-18T06:39:05;46028.50;;;-15.97;100.00
8515;BME280;4295;51.024;7.000;2022-11-18T06:41:30;45714.59;;;-15.95;100.00
8515;BME280;4295;51.024;7.000;2022-11-18T06:43:56;45716.72;;;-15.93;100.00
8515;BME280;4295;51.024;7.000;2022-11-18T06:46:21;45088.94;;;-15.89;100.00
8515;BME280;4295;51.024;7.000;2022-11-18T06:49:05;44776.31;;;-15.85;100.00
8515;BME280;4295;51.024;7.000;2022-11-18T06:51:30;44464.94;;;-15.80;100.00
8515;BME280;4295;51.024;7.000;2022-11-18T06:53:56;44150.59;;;-15.79;100.00
8515;BME280;4295;51.024;7.000;2022-11-18T06:56:22;43837.56;;;-15.76;100.00
8515;BME280;4295;51.024;7.000;2022-11-18T06:58:52;43837.16;;;-15.76;100.00
8515;BME280;4295;51.024;7.000;2022-11-18T07:01:20;43525.72;;;-15.71;100.00
8515;BME280;4295;51.024;7.000;2022-11-18T07:03:46;42898.75;;;-15.66;100.00
8515;BME280;4295;51.024;7.000;2022-11-18T07:06:14;42898.75;;;-15.66;100.00
8515;BME280;4295;51.024;7.000;2022-11-18T07:08:40;42903.22;;;-15.61;100.00
8515;BME280;4295;51.024;7.000;2022-11-18T07:11:08;42591.31;;;-15.56;100.00
8515;BME280;4295;51.024;7.000;2022-11-18T07:13:34;42906.47;;;-15.57;100.00
8515;BME280;4295;51.024;7.000;2022-11-18T07:16:02;42906.88;;;-15.56;100.00
8515;BME280;4295;51.024;7.000;2022-11-18T07:18:30;42907.66;;;-15.55;100.00
8515;BME280;4295;51.024;7.000;2022-11-18T07:20:55;42908.47;;;-15.54;100.00
8515;BME280;4295;51.024;7.000;2022-11-18T07:23:21;42908.47;;;-15.54;100.00
8515;BME280;4295;51.024;7.000;2022-11-18T07:25:46;42595.34;;;-15.51;100.00
8515;BME280;4295;51.024;7.000;2022-11-18T07:28:11;42595.75;;;-15.51;100.00
8515;BME280;4295;51.024;7.000;2022-11-18T07:30:37;42596.16;;;-15.50;100.00
8515;BME280;4295;51.024;7.000;2022-11-18T07:33:02;42283.41;;;-15.47;100.00
8515;BME280;4295;51.024;7.000;2022-11-18T07:35:27;42284.59;;;-15.45;100.00
8515;BME280;4295;51.024;7.000;2022-11-18T07:37:53;42284.59;;;-15.45;100.00
8515;BME280;4295;51.024;7.000;2022-11-18T07:40:18;42600.97;;;-15.44;100.00
8515;BME280;4295;51.024;7.000;2022-11-18T07:42:43;42603.78;;;-15.41;100.00
8515;BME280;4295;51.024;7.000;2022-11-18T07:45:10;42604.56;;;-15.39;100.00
8515;BME280;4295;51.024;7.000;2022-11-18T07:47:36;42295.38;;;-15.31;100.00
8515;BME280;4295;51.024;7.000;2022-11-18T07:50:01;42612.22;;;-15.30;100.00
8515;BME280;4295;51.024;7.000;2022-11-18T07:52:27;42929.09;;;-15.28;100.00
8515;BME280;4295;51.024;7.000;2022-11-18T07:54:52;43244.41;;;-15.29;100.00
8515;BME280;4295;51.024;7.000;2022-11-18T07:57:17;43560.56;;;-15.28;100.00
8515;BME280;4295;51.024;7.000;2022-11-18T07:59:42;43876.34;;;-15.28;100.00
8515;BME280;4295;51.024;7.000;2022-11-18T08:02:11;43880.88;;;-15.23;100.00
8515;BME280;4295;51.024;7.000;2022-11-18T08:04:36;44198.81;;;-15.20;100.00
8515;BME280;4295;51.024;7.000;2022-11-18T08:07:02;44202.13;;;-15.16;100.00
8515;BME280;4295;51.024;7.000;2022-11-18T08:09:27;44516.34;;;-15.18;100.00
8515;BME280;4295;51.024;7.000;2022-11-18T08:11:52;44518.88;;;-15.15;100.00
8515;BME280;4295;51.024;7.000;2022-11-18T08:14:18;44523.03;;;-15.10;100.00
8515;BME280;4295;51.024;7.000;2022-11-18T08:16:43;44528.06;;;-15.04;100.00
8515;BME280;4295;51.024;7.000;2022-11-18T08:19:08;44849.53;;;-14.98;100.00
8515;BME280;4295;51.024;7.000;2022-11-18T08:21:34;45169.81;;;-14.93;100.00
8515;BME280;4295;51.024;7.000;2022-11-18T08:23:59;45802.50;;;-14.92;100.00
8515;BME280;4295;51.024;7.000;2022-11-18T08:26:25;45495.31;;;-14.81;100.00
8515;BME280;4295;51.024;7.000;2022-11-18T08:28:51;45502.16;;;-14.73;100.00
8515;BME280;4295;51.024;7.000;2022-11-18T08:31:18;45507.69;;;-14.67;100.00
8515;BME280;4295;51.024;7.000;2022-11-18T08:33:44;46144.59;;;-14.62;100.00
8515;BME280;4295;51.024;7.000;2022-11-18T08:36:20;47097.75;;;-14.57;100.00
8515;BME280;4295;51.024;7.000;2022-11-18T08:38:47;47732.94;;;-14.55;100.00
8515;BME280;4295;51.024;7.000;2022-11-18T08:41:14;48687.22;;;-14.50;100.00
8515;BME280;4295;51.024;7.000;2022-11-18T08:43:40;50269.91;;;-14.51;100.00
8515;BME280;4295;51.024;7.000;2022-11-18T08:46:06;51222.31;;;-14.49;100.00
8515;BME280;4295;51.024;7.000;2022-11-18T08:48:31;51858.09;;;-14.47;100.00
8515;BME280;4295;51.024;7.000;2022-11-18T08:50:57;51548.31;;;-14.39;100.00
8515;BME280;4295;51.024;7.000;2022-11-18T08:53:23;51556.41;;;-14.31;100.00
8515;BME280;4295;51.024;7.000;2022-11-18T08:55:54;52190.53;;;-14.31;100.00
8515;BME280;4295;51.024;7.000;2022-11-18T08:58:20;51889.78;;;-14.13;100.00
8515;BME280;4295;51.024;7.000;2022-11-18T09:00:45;51894.13;;;-14.09;100.00
8515;BME280;4295;51.024;7.000;2022-11-18T09:03:10;51910.97;;;-13.91;100.00
8515;BME280;4295;51.024;7.000;2022-11-18T09:05:35;54754.34;;;-14.04;100.00
8515;BME280;4295;51.024;7.000;2022-11-18T09:08:01;57922.94;;;-14.11;100.00
8515;BME280;4295;51.024;7.000;2022-11-18T09:10:26;59505.91;;;-14.17;100.00
8515;BME280;4295;51.024;7.000;2022-11-18T09:12:52;60151.56;;;-14.08;100.00
8515;BME280;4295;51.024;7.000;2022-11-18T09:15:18;61104.41;;;-14.09;100.00
8515;BME280;4295;51.024;7.000;2022-11-18T09:17:43;60182.94;;;-13.79;100.00
8515;BME280;4295;51.024;7.000;2022-11-18T09:20:08;61784.53;;;-13.70;100.00
8515;BME280;4295;51.024;7.000;2022-11-18T09:22:35;65595.50;;;-13.79;100.00
8515;BME280;4295;51.024;7.000;2022-11-18T09:25:01;73560.00;;;-13.86;100.00
8515;BME280;4295;51.024;7.000;2022-11-18T09:27:27;80293.72;;;-13.71;100.00
8515;BME280;4295;51.024;7.000;2022-11-18T09:29:52;85444.59;;;-13.53;100.00
8515;BME280;4295;51.024;7.000;2022-11-18T09:32:17;96028.25;;;-13.60;100.00
8515;BME280;4295;51.024;7.000;2022-11-18T09:34:43;106983.28;;;-13.57;100.00
8515;BME280;4295;51.024;7.000;2022-11-18T09:37:09;116332.59;;;-13.66;100.00
8515;BME280;4295;51.024;7.000;2022-11-18T09:39:34;123786.97;;;-13.62;100.00
8515;BME280;4295;51.024;7.000;2022-11-18T09:47:13;137530.53;;;-13.30;100.00
8515;BME280;4295;51.024;7.000;2022-11-18T09:49:44;134997.19;;;-13.22;100.00
8515;BME280;4295;51.024;7.000;2022-11-18T09:54:50;141418.31;;;-13.26;100.00
8515;BME280;4295;51.024;7.000;2022-11-18T09:57:18;141380.88;;;-13.41;100.00
8515;BME280;4295;51.024;7.000;2022-11-18T09:59:45;141428.31;;;-13.22;100.00
8515;BME280;4295;51.024;7.000;2022-11-18T10:04:42;141503.16;;;-12.91;100.00
8515;BME280;4295;51.024;7.000;2022-11-18T10:07:29;141564.31;;;-12.67;100.00
8515;BME280;4295;51.024;7.000;2022-11-18T10:09:57;141609.25;;;-12.48;100.00
8515;BME280;4295;51.024;7.000;2022-11-18T10:12:54;141652.97;;;-12.31;100.00
8515;BME280;4295;51.024;7.000;2022-11-18T10:15:38;141694.19;;;-12.14;100.00
8515;BME280;4295;51.024;7.000;2022-11-18T10:20:53;141727.94;;;-12.01;100.00
8515;BME280;4295;51.024;7.000;2022-11-18T10:26:04;141719.19;;;-12.04;100.00
8515;BME280;4295;51.024;7.000;2022-11-18T10:28:29;141802.88;;;-11.70;100.00
8515;BME280;4295;51.024;7.000;2022-11-18T10:31:06;141851.63;;;-11.51;100.00
8515;BME280;4295;51.024;7.000;2022-11-18T10:33:33;141747.94;;;-11.92;100.00
8515;BME280;4295;51.024;7.000;2022-11-18T10:38:42;141669.22;;;-12.24;100.00
8515;BME280;4295;51.024;7.000;2022-11-18T10:41:12;141676.72;;;-12.21;100.00
8515;BME280;4295;51.024;7.000;2022-11-18T10:43:51;141666.72;;;-12.25;100.00
8515;BME280;4295;51.024;7.000;2022-11-18T10:46:32;141635.47;;;-12.38;100.00
8515;BME280;4295;51.024;7.000;2022-11-18T10:51:35;141606.75;;;-12.49;100.00
8515;BME280;4295;51.024;7.000;2022-11-18T10:54:21;141593.00;;;-12.55;100.00
8515;BME280;4295;51.024;7.000;2022-11-18T10:56:53;141610.53;;;-12.48;100.00
8515;BME280;4295;51.024;7.000;2022-11-18T10:59:27;141752.91;;;-11.90;100.00
8515;BME280;4295;51.024;7.000;2022-11-18T11:04:39;141924.13;;;-11.21;100.00
8515;BME280;4295;51.024;7.000;2022-11-18T11:07:47;141980.41;;;-10.99;100.00
8515;BME280;4295;51.024;7.000;2022-11-18T11:12:39;141892.88;;;-11.34;100.00
8515;BME280;4295;51.024;7.000;2022-11-18T11:15:27;141902.88;;;-11.30;100.00
8515;BME280;4295;51.024;7.000;2022-11-18T11:17:59;141802.88;;;-11.70;100.00
8515;BME280;4295;51.024;7.000;2022-11-18T11:20:44;141831.59;;;-11.59;100.00
8515;BME280;4295;51.024;7.000;2022-11-18T11:23:11;141827.88;;;-11.60;100.00
8515;BME280;4295;51.024;7.000;2022-11-18T11:31:20;141992.91;;;-10.94;100.00
8515;BME280;4295;51.024;7.000;2022-11-18T11:42:42;141727.94;;;-12.01;100.00
8515;BME280;4295;51.024;7.000;2022-11-18T11:50:32;141605.50;;;-12.50;100.00
8515;BME280;4295;51.024;7.000;2022-11-18T11:53:28;141603.03;;;-12.51;100.00
8515;BME280;4295;51.024;7.000;2022-11-18T11:58:52;141549.31;;;-12.73;100.00
8515;BME280;4295;51.024;7.000;2022-11-18T12:04:55;141525.59;;;-12.82;100.00
8515;BME280;4295;51.024;7.000;2022-11-18T12:07:28;141388.34;;;-13.38;100.00
8515;BME280;4295;51.024;7.000;2022-11-18T12:18:42;141464.44;;;-13.07;100.00
8515;BME280;4295;51.024;7.000;2022-11-18T12:26:42;141476.91;;;-13.02;100.00
8515;BME280;4295;51.024;7.000;2022-11-18T12:31:49;141453.25;;;-13.12;100.00
8515;BME280;4295;51.024;7.000;2022-11-18T12:36:43;141464.44;;;-13.07;100.00
8515;BME280;4295;51.024;7.000;2022-11-18T12:44:33;141443.28;;;-13.16;100.00
8515;BME280;4295;51.024;7.000;2022-11-18T12:47:03;141448.25;;;-13.14;100.00
8515;BME280;4295;51.024;7.000;2022-11-18T12:51:58;141423.34;;;-13.24;100.00
8515;BME280;4295;51.024;7.000;2022-11-18T12:56:54;141427.06;;;-13.22;100.00
8515;BME280;4295;51.024;7.000;2022-11-18T12:59:34;141422.06;;;-13.24;100.00
8515;BME280;4295;51.024;7.000;2022-11-18T13:02:06;141412.06;;;-13.28;100.00
8515;BME280;4295;51.024;7.000;2022-11-18T13:04:39;141394.59;;;-13.35;100.00
8515;BME280;4295;51.024;7.000;2022-11-18T13:07:09;141387.09;;;-13.38;100.00
8515;BME280;4295;51.024;7.000;2022-11-18T13:09:54;141377.16;;;-13.42;100.00
8515;BME280;4295;51.024;7.000;2022-11-18T13:12:21;141384.63;;;-13.39;100.00
8515;BME280;4295;51.024;7.000;2022-11-18T13:14:49;141385.91;;;-13.39;100.00
8515;BME280;4295;51.024;7.000;2022-11-18T13:17:38;141378.41;;;-13.42;100.00
8515;BME280;4295;51.024;7.000;2022-11-18T13:22:57;141387.09;;;-13.38;100.00
8515;BME280;4295;51.024;7.000;2022-11-18T13:25:42;141384.63;;;-13.39;100.00
8515;BME280;4295;51.024;7.000;2022-11-18T13:33:28;141485.66;;;-12.98;100.00
8515;BME280;4295;51.024;7.000;2022-11-18T13:35:59;141491.91;;;-12.96;100.00
8515;BME280;4295;51.024;7.000;2022-11-18T13:38:24;141496.88;;;-12.94;100.00
8515;BME280;4295;51.024;7.000;2022-11-18T13:40:50;141500.66;;;-12.92;100.00
8515;BME280;4295;51.024;7.000;2022-11-18T13:43:34;141500.66;;;-12.92;100.00
8515;BME280;4295;51.024;7.000;2022-11-18T13:46:04;141494.41;;;-12.95;100.00
8515;BME280;4295;51.024;7.000;2022-11-18T13:48:32;141486.91;;;-12.98;100.00
8515;BME280;4295;51.024;7.000;2022-11-18T13:50:59;141489.38;;;-12.97;100.00
8515;BME280;4295;51.024;7.000;2022-11-18T13:53:29;141496.88;;;-12.94;100.00
8515;BME280;4295;51.024;7.000;2022-11-18T13:55:57;141485.66;;;-12.98;100.00
8515;BME280;4295;51.024;7.000;2022-11-18T13:58:32;141493.16;;;-12.95;100.00
8515;BME280;4295;51.024;7.000;2022-11-18T14:01:02;141493.16;;;-12.95;100.00
8515;BME280;4295;51.024;7.000;2022-11-18T14:05:54;141484.41;;;-12.99;100.00
8515;BME280;4295;51.024;7.000;2022-11-18T14:08:29;141486.91;;;-12.98;100.00
8515;BME280;4295;51.024;7.000;2022-11-18T14:10:55;141469.44;;;-13.05;100.00
8515;BME280;4295;51.024;7.000;2022-11-18T14:13:32;141445.75;;;-13.15;100.00
8515;BME280;4295;51.024;7.000;2022-11-18T14:16:00;141454.50;;;-13.11;100.00
8515;BME280;4295;51.024;7.000;2022-11-18T14:18:30;141462.00;;;-13.08;100.00
8515;BME280;4295;51.024;7.000;2022-11-18T14:20:57;141471.94;;;-13.04;100.00
8515;BME280;4295;51.024;7.000;2022-11-18T14:23:28;141470.69;;;-13.04;100.00
8515;BME280;4295;51.024;7.000;2022-11-18T14:25:55;141462.00;;;-13.08;100.00
8515;BME280;4295;51.024;7.000;2022-11-18T14:33:41;141468.19;;;-13.05;100.00
8515;BME280;4295;51.024;7.000;2022-11-18T14:36:13;141462.00;;;-13.08;100.00
8515;BME280;4295;51.024;7.000;2022-11-18T14:38:48;141455.75;;;-13.10;100.00
8515;BME280;4295;51.024;7.000;2022-11-18T14:41:16;141450.78;;;-13.13;100.00
8515;BME280;4295;51.024;7.000;2022-11-18T14:44:03;141442.03;;;-13.16;100.00
8515;BME280;4295;51.024;7.000;2022-11-18T14:46:28;141433.28;;;-13.20;100.00
8515;BME280;4295;51.024;7.000;2022-11-18T14:48:54;141427.06;;;-13.22;100.00
8515;BME280;4295;51.024;7.000;2022-11-18T14:51:19;141425.81;;;-13.23;100.00
8515;BME280;4295;51.024;7.000;2022-11-18T14:53:45;141414.59;;;-13.27;100.00
8515;BME280;4295;51.024;7.000;2022-11-18T14:56:20;141383.38;;;-13.40;100.00
8515;BME280;4295;51.024;7.000;2022-11-18T14:58:46;141367.16;;;-13.46;100.00
8515;BME280;4295;51.024;7.000;2022-11-18T15:01:12;141380.88;;;-13.41;100.00
8515;BME280;4295;51.024;7.000;2022-11-18T15:03:38;141368.41;;;-13.46;100.00
8515;BME280;4295;51.024;7.000;2022-11-18T15:06:09;141332.22;;;-13.60;100.00
8515;BME280;4295;51.024;7.000;2022-11-18T15:08:36;141296.06;;;-13.75;100.00
8515;BME280;4295;51.024;7.000;2022-11-18T15:11:01;141299.84;;;-13.74;100.00
8515;BME280;4295;51.024;7.000;2022-11-18T15:13:26;141309.78;;;-13.70;100.00
8515;BME280;4295;51.024;7.000;2022-11-18T15:15:52;141317.28;;;-13.66;100.00
8515;BME280;4295;51.024;7.000;2022-11-18T15:18:17;141308.53;;;-13.70;100.00